Time;durP1;ratioP1;P1;durP2;ratioP2;P2;SDS_P1;SDS_P2;PMS_P1;PMS_P2;Temp;Humidity;BMP_temperature;BMP_pressure;BME280_temperature;BME280_humidity;BME280_pressure;Samples;Min_cycle;Max_cycle;Signal;HPM_P1;HPM_P2
2022/11/05 00:10:17;;;;;;;9.27;6.53;;;10.30;81.70;;;;;;5063235;28;20117;-58
2022/11/05 00:18:11;;;;;;;9.63;7.28;;;10.40;82.00;;;;;;5057822;28;20040;-58
2022/11/05 00:20:37;;;;;;;9.18;6.47;;;10.40;82.00;;;;;;5047029;28;20029;-57
2022/11/05 00:26:00;;;;;;;9.43;7.22;;;10.40;82.30;;;;;;5060255;28;20067;-57
2022/11/05 00:28:28;;;;;;;8.73;6.53;;;10.40;82.40;;;;;;5062042;28;20103;-58
2022/11/05 00:31:03;;;;;;;9.30;6.28;;;10.40;82.50;;;;;;5056224;28;20025;-57
2022/11/05 00:33:28;;;;;;;9.85;6.93;;;10.50;82.50;;;;;;5052919;28;20029;-57
2022/11/05 00:35:54;;;;;;;10.32;7.18;;;10.50;82.60;;;;;;5067859;28;20036;-58
2022/11/05 00:38:20;;;;;;;8.98;6.45;;;10.50;82.50;;;;;;5060194;28;20031;-56
2022/11/05 00:40:46;;;;;;;7.43;5.93;;;10.50;82.50;;;;;;5049644;28;20071;-57
2022/11/05 00:45:55;;;;;;;9.60;6.47;;;10.50;82.50;;;;;;5063392;28;20131;-57
2022/11/05 00:51:06;;;;;;;8.27;6.20;;;10.50;82.40;;;;;;5050883;28;20074;-57
2022/11/05 00:53:32;;;;;;;8.63;6.47;;;10.50;82.50;;;;;;5055807;28;20029;-57
2022/11/05 00:55:59;;;;;;;8.07;5.68;;;10.50;82.50;;;;;;5057999;28;20407;-57
2022/11/05 00:58:27;;;;;;;7.40;5.00;;;10.50;82.60;;;;;;5061250;28;20021;-57
2022/11/05 01:00:58;;;;;;;6.25;4.55;;;10.50;82.70;;;;;;5059871;28;20079;-61
2022/11/05 01:03:29;;;;;;;6.63;5.13;;;10.60;82.80;;;;;;5051181;28;20107;-60
2022/11/05 01:05:56;;;;;;;;;;;10.60;82.60;;;;;;5057816;28;20102;-61
2022/11/05 01:08:24;;;;;;;5.90;4.30;;;10.60;82.40;;;;;;5052816;28;19908;-61
2022/11/05 01:10:52;;;;;;;6.57;4.50;;;10.60;82.50;;;;;;5066324;28;20028;-60
2022/11/05 01:13:21;;;;;;;5.35;4.13;;;10.60;82.50;;;;;;5041987;28;20549;-61
2022/11/05 01:15:49;;;;;;;6.05;4.47;;;10.60;82.70;;;;;;5068810;28;20074;-61
2022/11/05 01:18:15;;;;;;;6.45;4.70;;;10.60;82.60;;;;;;5052605;28;20029;-61
2022/11/05 01:20:41;;;;;;;5.80;4.43;;;10.60;82.80;;;;;;5051038;28;20031;-62
2022/11/05 01:23:06;;;;;;;7.28;4.60;;;10.60;82.90;;;;;;5057430;28;20021;-61
2022/11/05 01:25:32;;;;;;;5.78;4.50;;;10.60;82.90;;;;;;5056087;28;20340;-61
2022/11/05 01:27:58;;;;;;;6.10;4.25;;;10.60;82.90;;;;;;5045372;28;20033;-61
2022/11/05 01:30:23;;;;;;;5.55;4.03;;;10.60;82.80;;;;;;5050080;28;20037;-61
2022/11/05 01:32:49;;;;;;;5.72;4.13;;;10.60;82.80;;;;;;5051213;28;20059;-59
2022/11/05 01:35:17;;;;;;;5.70;4.10;;;10.60;82.90;;;;;;5040221;28;20068;-60
2022/11/05 01:37:43;;;;;;;5.05;4.05;;;10.60;82.80;;;;;;5064856;28;20415;-62
2022/11/05 01:40:14;;;;;;;5.25;4.10;;;10.60;82.80;;;;;;5054993;28;20025;-59
2022/11/05 01:42:40;;;;;;;;;;;10.60;82.70;;;;;;5052216;28;20091;-61
2022/11/05 01:45:25;;;;;;;6.32;4.32;;;10.50;82.60;;;;;;5056745;28;19909;-61
2022/11/05 01:48:05;;;;;;;5.97;4.25;;;10.50;82.90;;;;;;5048533;28;20070;-61
2022/11/05 01:50:52;;;;;;;4.30;3.90;;;10.60;82.80;;;;;;5056547;28;20032;-61
2022/11/05 01:53:21;;;;;;;5.65;3.90;;;10.60;82.90;;;;;;5054772;28;20413;-61
2022/11/05 01:55:58;;;;;;;5.60;4.30;;;10.60;82.90;;;;;;5046040;28;20357;-61
2022/11/05 01:58:28;;;;;;;5.80;4.07;;;10.60;82.90;;;;;;5052042;28;20028;-61
2022/11/05 02:00:55;;;;;;;5.75;4.38;;;10.60;82.90;;;;;;5049589;28;20029;-61
2022/11/05 02:03:22;;;;;;;4.85;3.92;;;10.60;82.80;;;;;;5053987;28;20448;-61
2022/11/05 02:05:50;;;;;;;5.30;4.45;;;10.70;83.00;;;;;;5050812;28;20036;-61
2022/11/05 02:08:39;;;;;;;5.65;4.38;;;10.70;83.00;;;;;;5055140;28;20468;-59
2022/11/05 02:11:05;;;;;;;5.57;4.00;;;10.70;82.90;;;;;;5046199;28;20040;-61
2022/11/05 02:13:30;;;;;;;4.97;4.00;;;10.70;82.80;;;;;;5049843;28;20052;-61
2022/11/05 02:16:08;;;;;;;5.78;4.10;;;10.70;82.70;;;;;;5065119;28;20017;-61
2022/11/05 02:19:14;;;;;;;5.28;4.10;;;10.70;82.60;;;;;;5047203;28;20049;-61
2022/11/05 02:22:20;;;;;;;5.78;4.25;;;10.80;82.50;;;;;;5057860;28;20398;-61
2022/11/05 02:25:10;;;;;;;6.05;4.55;;;10.80;82.40;;;;;;5057475;28;20025;-61
2022/11/05 02:28:02;;;;;;;5.70;4.05;;;10.80;82.40;;;;;;5044163;28;20171;-61
2022/11/05 02:30:36;;;;;;;;;;;10.80;82.20;;;;;;5053054;28;20036;-61
2022/11/05 02:33:07;;;;;;;4.85;3.60;;;10.80;82.10;;;;;;5049937;28;19913;-61
2022/11/05 02:35:39;;;;;;;5.50;3.88;;;10.80;82.20;;;;;;5062586;28;20418;-61
2022/11/05 02:38:18;;;;;;;6.40;4.00;;;10.90;82.30;;;;;;5054426;28;20036;-58
2022/11/05 02:40:49;;;;;;;5.88;3.85;;;10.90;82.20;;;;;;5041876;28;20435;-61
2022/11/05 02:43:34;;;;;;;5.07;3.92;;;10.90;82.20;;;;;;5058423;28;20432;-61
2022/11/05 02:46:25;;;;;;;7.05;4.35;;;10.90;82.10;;;;;;5063936;28;20143;-61
2022/11/05 02:49:08;;;;;;;5.07;3.60;;;11.00;82.10;;;;;;5051096;28;20071;-61
2022/11/05 02:51:43;;;;;;;6.40;4.50;;;11.00;82.10;;;;;;5037362;28;20154;-62
2022/11/05 02:54:40;;;;;;;5.80;3.70;;;11.00;82.10;;;;;;5057096;28;20468;-61
2022/11/05 02:57:06;;;;;;;5.20;3.88;;;11.00;82.60;;;;;;5053581;28;20086;-61
2022/11/05 02:59:32;;;;;;;7.10;4.72;;;11.00;81.90;;;;;;5048876;28;20107;-60
2022/11/05 03:01:59;;;;;;;6.28;4.63;;;11.00;81.80;;;;;;5063560;28;20039;-62
2022/11/05 03:04:26;;;;;;;6.90;4.60;;;11.00;81.70;;;;;;5052166;28;20391;-61
2022/11/05 03:06:54;;;;;;;5.30;4.40;;;11.00;81.50;;;;;;5051817;28;20060;-61
2022/11/05 03:09:57;;;;;;;6.82;4.43;;;11.00;81.60;;;;;;5054141;28;20080;-60
2022/11/05 03:12:46;;;;;;;7.05;5.18;;;10.90;81.50;;;;;;5037947;28;20431;-61
2022/11/05 03:15:33;;;;;;;6.93;4.65;;;10.90;81.70;;;;;;5064610;28;20020;-61
2022/11/05 03:18:27;;;;;;;7.38;5.18;;;10.90;81.70;;;;;;5055487;28;20064;-60
2022/11/05 03:21:05;;;;;;;6.20;4.30;;;10.80;81.60;;;;;;5065934;28;20029;-61
2022/11/05 03:23:43;;;;;;;6.93;4.25;;;10.80;81.70;;;;;;5057176;28;20043;-61
2022/11/05 03:26:22;;;;;;;7.90;5.72;;;10.80;82.00;;;;;;5055465;28;21487;-62
2022/11/05 03:28:54;;;;;;;7.45;5.20;;;10.80;82.00;;;;;;5058163;28;20108;-62
2022/11/05 03:31:22;;;;;;;7.68;5.45;;;10.80;81.90;;;;;;5050654;28;20036;-61
2022/11/05 03:33:50;;;;;;;6.78;4.53;;;10.80;81.70;;;;;;5051546;28;20443;-61
2022/11/05 03:36:24;;;;;;;8.13;5.35;;;10.80;81.80;;;;;;5056370;28;20108;-61
2022/11/05 03:38:53;;;;;;;7.57;5.40;;;10.80;82.00;;;;;;5044335;28;20670;-61
2022/11/05 03:41:21;;;;;;;7.15;5.03;;;10.80;81.90;;;;;;5064350;28;20032;-61
2022/11/05 03:43:52;;;;;;;8.20;5.50;;;10.80;82.10;;;;;;5056860;28;20032;-60
2022/11/05 03:46:26;;;;;;;6.75;4.57;;;10.80;82.30;;;;;;5060266;28;20028;-61
2022/11/05 03:48:55;;;;;;;9.55;5.70;;;10.80;82.30;;;;;;5050767;28;20051;-61
2022/11/05 03:51:33;;;;;;;7.20;4.80;;;10.80;82.50;;;;;;5041857;28;20025;-60
2022/11/05 03:54:01;;;;;;;8.30;5.72;;;10.80;82.40;;;;;;5057539;28;20043;-61
2022/11/05 03:56:29;;;;;;;6.88;4.90;;;10.80;82.50;;;;;;5055707;28;20029;-59
2022/11/05 03:58:56;;;;;;;8.82;5.18;;;10.80;82.40;;;;;;5051842;28;20548;-62
2022/11/05 04:01:22;;;;;;;8.40;5.28;;;10.90;82.60;;;;;;5055439;28;20021;-61
2022/11/05 04:03:48;;;;;;;7.25;5.10;;;10.90;82.60;;;;;;5052554;28;20040;-61
2022/11/05 04:14:26;;;;;;;7.57;4.97;;;10.90;82.70;;;;;;5053488;28;20097;-61
2022/11/05 04:17:08;;;;;;;7.57;4.68;;;11.00;82.70;;;;;;5057374;28;20115;-62
2022/11/05 04:25:05;;;;;;;8.05;5.00;;;11.00;82.50;;;;;;5061138;28;20403;-61
2022/11/05 04:27:30;;;;;;;8.02;5.13;;;11.00;82.40;;;;;;5054871;28;20025;-61
2022/11/05 04:32:40;;;;;;;8.90;5.18;;;11.00;82.50;;;;;;5042686;28;20043;-61
2022/11/05 04:35:06;;;;;;;7.88;5.15;;;11.00;82.50;;;;;;5056561;28;20021;-61
2022/11/05 04:37:31;;;;;;;8.70;5.13;;;11.00;82.40;;;;;;5056492;28;20025;-61
2022/11/05 04:39:57;;;;;;;7.05;4.68;;;11.00;82.30;;;;;;5061983;28;20064;-61
2022/11/05 04:42:23;;;;;;;8.13;5.13;;;11.00;82.20;;;;;;5057718;28;20037;-61
2022/11/05 04:44:48;;;;;;;7.65;4.97;;;11.00;82.20;;;;;;5055158;28;20039;-62
2022/11/05 04:47:14;;;;;;;7.75;5.05;;;11.00;82.10;;;;;;5055125;28;20032;-60
2022/11/05 04:49:39;;;;;;;7.85;5.25;;;11.00;82.20;;;;;;5059093;28;20082;-61
2022/11/05 04:52:05;;;;;;;8.70;5.60;;;11.00;82.20;;;;;;5061875;28;20502;-62
2022/11/05 04:54:31;;;;;;;7.95;5.45;;;11.10;82.10;;;;;;5054762;28;20033;-61
2022/11/05 04:56:56;;;;;;;8.27;5.35;;;11.00;82.00;;;;;;5051930;28;20033;-61
2022/11/05 04:59:22;;;;;;;7.88;5.50;;;11.00;81.90;;;;;;5055995;28;20021;-61
2022/11/05 05:01:51;;;;;;;7.28;5.20;;;11.00;81.90;;;;;;5054834;28;20064;-61
2022/11/05 05:04:17;;;;;;;9.57;6.22;;;11.00;82.00;;;;;;5061995;28;20044;-61
2022/11/05 05:06:43;;;;;;;11.68;7.13;;;11.00;82.00;;;;;;5058478;28;20240;-61
2022/11/05 05:09:08;;;;;;;8.05;6.03;;;11.00;81.80;;;;;;5054523;28;20037;-61
2022/11/05 05:11:34;;;;;;;7.85;5.20;;;11.00;81.70;;;;;;5045081;28;20048;-61
2022/11/05 05:13:59;;;;;;;6.90;5.00;;;11.00;82.40;;;;;;5054116;28;20115;-61
2022/11/05 05:16:26;;;;;;;7.78;5.00;;;11.00;81.90;;;;;;5055673;28;20025;-61
2022/11/05 05:18:52;;;;;;;7.35;5.18;;;11.00;82.00;;;;;;5039591;28;20026;-62
2022/11/05 05:21:39;;;;;;;7.57;5.28;;;11.00;82.10;;;;;;5045916;28;20035;-61
2022/11/05 05:24:07;;;;;;;6.57;4.80;;;11.00;81.90;;;;;;5062375;28;20033;-61
2022/11/05 05:26:37;;;;;;;12.02;6.80;;;11.00;81.90;;;;;;5053123;28;20025;-61
2022/11/05 05:29:04;;;;;;;9.35;6.00;;;11.00;81.90;;;;;;5046408;28;20087;-61
2022/11/05 05:31:29;;;;;;;9.30;6.60;;;11.00;81.90;;;;;;5043440;28;20029;-61
2022/11/05 05:33:55;;;;;;;9.85;6.72;;;11.00;81.90;;;;;;5050923;28;20056;-62
2022/11/05 05:36:22;;;;;;;11.48;7.38;;;11.10;81.90;;;;;;5050839;28;20025;-61
2022/11/05 05:38:47;;;;;;;10.13;6.32;;;11.00;81.90;;;;;;5048523;28;20029;-61
2022/11/05 05:41:13;;;;;;;9.50;6.25;;;11.10;82.00;;;;;;5060984;28;20422;-61
2022/11/05 05:43:39;;;;;;;10.95;6.75;;;11.10;82.10;;;;;;5054665;28;20029;-61
2022/11/05 05:46:07;;;;;;;10.98;6.88;;;11.10;82.10;;;;;;5067498;28;20118;-61
2022/11/05 05:48:33;;;;;;;11.40;7.50;;;11.20;82.20;;;;;;5040693;28;20024;-61
2022/11/05 05:51:07;;;;;;;13.15;7.90;;;11.20;82.20;;;;;;5067931;28;20075;-62
2022/11/05 05:53:34;;;;;;;12.90;8.20;;;11.20;82.10;;;;;;5051329;28;20033;-61
2022/11/05 05:56:00;;;;;;;12.60;8.38;;;11.30;82.00;;;;;;5059182;28;20439;-61
2022/11/05 05:58:29;;;;;;;14.05;8.20;;;11.30;82.00;;;;;;5052742;28;20032;-61
2022/11/05 06:01:00;;;;;;;13.18;9.50;;;11.30;82.00;;;;;;5050042;28;20079;-61
2022/11/05 06:03:25;;;;;;;17.17;9.43;;;11.40;82.00;;;;;;5053126;28;20380;-60
2022/11/05 06:05:51;;;;;;;13.35;9.05;;;11.40;82.00;;;;;;5062771;28;20029;-62
2022/11/05 06:08:16;;;;;;;16.05;11.30;;;11.40;81.90;;;;;;5050471;28;20032;-61
2022/11/05 06:10:48;;;;;;;16.17;10.35;;;11.40;82.50;;;;;;5054496;28;20048;-61
2022/11/05 06:13:14;;;;;;;13.77;9.25;;;11.50;81.80;;;;;;5052723;28;20064;-60
2022/11/05 06:15:40;;;;;;;13.68;9.52;;;11.50;81.80;;;;;;5051749;28;20028;-60
2022/11/05 06:18:05;;;;;;;10.88;7.80;;;11.50;81.80;;;;;;5050697;28;20036;-61
2022/11/05 06:20:31;;;;;;;10.75;7.03;;;11.50;81.70;;;;;;5057261;28;20025;-61
2022/11/05 06:22:57;;;;;;;11.18;7.45;;;11.50;81.80;;;;;;5048806;28;20594;-61
2022/11/05 06:25:23;;;;;;;10.85;7.38;;;11.50;81.70;;;;;;5053721;28;20060;-59
2022/11/05 06:27:49;;;;;;;8.27;6.05;;;11.50;81.50;;;;;;5043547;28;20040;-61
2022/11/05 06:30:16;;;;;;;10.00;6.82;;;11.50;81.20;;;;;;5055686;28;20025;-61
2022/11/05 06:32:42;;;;;;;11.68;7.57;;;11.50;81.20;;;;;;5054549;28;20065;-62
2022/11/05 06:35:08;;;;;;;13.38;8.25;;;11.50;81.20;;;;;;5053247;28;20123;-62
2022/11/05 06:37:34;;;;;;;10.52;7.35;;;11.50;81.10;;;;;;5052587;28;20041;-60
2022/11/05 06:40:00;;;;;;;12.18;7.22;;;11.40;81.10;;;;;;5048692;28;20542;-61
2022/11/05 06:42:26;;;;;;;7.85;5.70;;;11.40;81.00;;;;;;5048388;28;20141;-60
2022/11/05 06:44:51;;;;;;;9.52;5.95;;;11.40;80.90;;;;;;5048748;28;20422;-60
2022/11/05 06:47:18;;;;;;;10.10;6.60;;;11.40;80.70;;;;;;5049413;28;20090;-60
2022/11/05 06:49:46;;;;;;;9.30;5.82;;;11.30;80.70;;;;;;5053431;28;20072;-61
2022/11/05 06:52:13;;;;;;;8.52;5.00;;;11.30;80.60;;;;;;5039388;28;20083;-61
2022/11/05 06:54:41;;;;;;;8.85;4.88;;;11.30;80.70;;;;;;5061153;28;20395;-61
2022/11/05 06:57:08;;;;;;;7.82;4.80;;;11.30;80.70;;;;;;5060580;28;20017;-61
2022/11/05 06:59:34;;;;;;;5.75;4.15;;;11.30;80.70;;;;;;5054142;28;20469;-61
2022/11/05 07:02:00;;;;;;;6.93;4.40;;;11.30;80.90;;;;;;5063469;28;20047;-61
2022/11/05 07:04:26;;;;;;;7.55;5.32;;;11.30;81.10;;;;;;5058705;28;20037;-61
2022/11/05 07:06:51;;;;;;;7.75;5.20;;;11.30;81.10;;;;;;5050285;28;20029;-61
2022/11/05 07:09:17;;;;;;;6.90;3.78;;;11.40;81.10;;;;;;5053279;28;20491;-61
2022/11/05 07:11:42;;;;;;;6.20;4.13;;;11.40;81.00;;;;;;5053726;28;20460;-61
2022/11/05 07:14:08;;;;;;;7.05;4.70;;;11.40;80.90;;;;;;5055047;28;20106;-61
2022/11/05 07:16:33;;;;;;;6.72;4.38;;;11.50;80.80;;;;;;5049025;28;20025;-61
2022/11/05 07:18:59;;;;;;;5.60;3.65;;;11.40;80.50;;;;;;5043755;28;20029;-61
2022/11/05 07:21:25;;;;;;;5.95;4.03;;;11.40;80.40;;;;;;5060320;28;20033;-60
2022/11/05 07:23:50;;;;;;;7.53;4.63;;;11.30;80.20;;;;;;5047515;28;20029;-61
2022/11/05 07:26:16;;;;;;;6.72;4.65;;;11.40;80.30;;;;;;5054111;28;20029;-61
2022/11/05 07:28:42;;;;;;;6.03;4.30;;;11.30;80.30;;;;;;5058813;28;20029;-60
2022/11/05 07:31:07;;;;;;;6.78;4.60;;;11.20;80.30;;;;;;5067258;28;20722;-61
2022/11/05 07:33:33;;;;;;;5.43;4.13;;;11.20;80.30;;;;;;5059385;28;20086;-61
2022/11/05 07:35:58;;;;;;;6.50;4.45;;;11.10;80.40;;;;;;5056517;28;20021;-61
2022/11/05 07:38:24;;;;;;;6.35;4.63;;;11.10;80.60;;;;;;5050028;28;20480;-59
2022/11/05 07:40:50;;;;;;;5.90;4.10;;;11.10;80.70;;;;;;5053863;28;20060;-61
2022/11/05 07:43:15;;;;;;;5.55;4.30;;;11.00;80.80;;;;;;5058948;28;20095;-60
2022/11/05 07:45:41;;;;;;;5.32;4.30;;;11.00;80.90;;;;;;5060774;28;20029;-61
2022/11/05 07:48:07;;;;;;;5.35;3.72;;;11.00;80.60;;;;;;5057147;28;20104;-58
2022/11/05 07:50:34;;;;;;;4.70;3.38;;;11.00;80.90;;;;;;5056100;28;20032;-61
2022/11/05 07:53:14;;;;;;;4.45;3.50;;;10.90;81.20;;;;;;5057657;28;20515;-61
2022/11/05 07:55:40;;;;;;;5.32;3.60;;;10.90;81.10;;;;;;5046689;28;20452;-60
2022/11/05 07:58:06;;;;;;;4.82;3.30;;;10.90;81.40;;;;;;5061508;28;20021;-61
2022/11/05 08:00:33;;;;;;;5.63;3.90;;;10.90;81.10;;;;;;5053120;28;20032;-61
2022/11/05 08:03:07;;;;;;;7.65;4.55;;;10.90;81.00;;;;;;5050152;28;20033;-59
2022/11/05 08:05:35;;;;;;;6.80;4.55;;;10.80;80.60;;;;;;5036588;28;20432;-61
2022/11/05 08:08:01;;;;;;;6.13;4.28;;;10.70;80.60;;;;;;5050804;28;20074;-61
2022/11/05 08:10:27;;;;;;;6.28;4.25;;;10.60;80.80;;;;;;5053605;28;20036;-61
2022/11/05 08:12:54;;;;;;;5.80;4.10;;;10.40;81.10;;;;;;5059357;28;20051;-60
2022/11/05 08:15:20;;;;;;;8.52;5.68;;;10.30;81.50;;;;;;5065320;28;20028;-60
2022/11/05 08:17:46;;;;;;;6.72;4.90;;;10.30;81.70;;;;;;5051931;28;20418;-61
2022/11/05 08:20:12;;;;;;;7.35;4.68;;;10.20;82.00;;;;;;5062736;28;20127;-61
2022/11/05 08:22:43;;;;;;;7.55;4.88;;;10.20;82.30;;;;;;5057742;28;20041;-60
2022/11/05 08:25:09;;;;;;;7.65;4.78;;;10.20;82.70;;;;;;5056358;28;20120;-61
2022/11/05 08:27:35;;;;;;;9.95;5.90;;;10.30;83.20;;;;;;5058426;28;20116;-61
2022/11/05 08:30:01;;;;;;;8.15;4.88;;;10.30;83.10;;;;;;5055569;28;20116;-62
2022/11/05 08:32:27;;;;;;;6.63;4.88;;;10.40;83.00;;;;;;5054271;28;20097;-61
2022/11/05 08:34:53;;;;;;;6.40;4.65;;;10.40;83.10;;;;;;5051293;28;20119;-61
2022/11/05 08:37:18;;;;;;;6.25;4.60;;;10.50;83.20;;;;;;5040690;28;20380;-62
2022/11/05 08:39:44;;;;;;;7.82;5.13;;;10.60;83.70;;;;;;5039253;28;20333;-61
2022/11/05 08:42:09;;;;;;;9.02;5.88;;;10.60;83.00;;;;;;5049760;28;20025;-61
2022/11/05 08:44:35;;;;;;;7.50;5.45;;;10.70;83.10;;;;;;5054789;28;20028;-62
2022/11/05 08:47:01;;;;;;;8.23;5.55;;;10.70;82.70;;;;;;5056818;28;20040;-61
2022/11/05 08:49:26;;;;;;;8.82;5.70;;;10.70;82.40;;;;;;5046950;28;20037;-62
2022/11/05 08:51:52;;;;;;;7.88;5.45;;;10.60;82.20;;;;;;5050048;28;20035;-61
2022/11/05 08:54:17;;;;;;;10.40;6.57;;;10.60;82.60;;;;;;5045596;28;20040;-61
2022/11/05 08:56:43;;;;;;;7.93;5.38;;;10.50;82.80;;;;;;5051027;28;20037;-62
2022/11/05 08:59:09;;;;;;;7.88;5.93;;;10.50;82.90;;;;;;5053282;28;20029;-62
2022/11/05 09:01:35;;;;;;;9.13;6.57;;;10.50;83.20;;;;;;5059032;28;20028;-60
2022/11/05 09:04:00;;;;;;;12.57;7.60;;;10.50;83.30;;;;;;5065297;28;20032;-60
2022/11/05 09:06:26;;;;;;;10.25;6.55;;;10.50;83.20;;;;;;5051959;28;20036;-62
2022/11/05 09:08:52;;;;;;;10.38;6.45;;;10.40;83.40;;;;;;5049274;28;20021;-59
2022/11/05 09:11:18;;;;;;;8.93;6.13;;;10.40;83.70;;;;;;5033824;28;20523;-60
2022/11/05 09:13:43;;;;;;;8.70;5.88;;;10.30;84.00;;;;;;5064338;28;20029;-61
2022/11/05 09:16:21;;;;;;;9.68;6.78;;;10.30;84.30;;;;;;5054375;28;20036;-62
2022/11/05 09:18:48;;;;;;;9.80;6.82;;;10.30;84.50;;;;;;5049521;28;20021;-62
2022/11/05 09:21:13;;;;;;;7.78;5.35;;;10.30;84.50;;;;;;5046946;28;20063;-61
2022/11/05 09:23:39;;;;;;;7.72;5.53;;;10.30;84.50;;;;;;5058866;28;20486;-60
2022/11/05 09:26:05;;;;;;;8.38;5.55;;;10.30;84.70;;;;;;5052475;28;20104;-60
2022/11/05 09:28:31;;;;;;;6.80;5.05;;;10.40;84.90;;;;;;5045558;28;20037;-62
2022/11/05 09:30:56;;;;;;;8.00;5.60;;;10.40;84.90;;;;;;5052141;28;20112;-62
2022/11/05 09:33:24;;;;;;;10.18;6.75;;;10.40;84.80;;;;;;5050980;28;20488;-58
2022/11/05 09:35:51;;;;;;;8.93;6.57;;;10.40;84.70;;;;;;5051916;28;20029;-61
2022/11/05 09:38:17;;;;;;;9.20;5.82;;;10.40;84.50;;;;;;5052966;28;20027;-61
2022/11/05 09:40:54;;;;;;;10.93;6.65;;;10.40;84.80;;;;;;5046839;28;20464;-61
2022/11/05 09:43:25;;;;;;;8.10;5.50;;;10.40;85.00;;;;;;5044919;28;20048;-60
2022/11/05 09:45:56;;;;;;;8.23;5.63;;;10.40;85.30;;;;;;5053083;28;20476;-61
2022/11/05 09:48:26;;;;;;;7.72;5.43;;;10.40;85.20;;;;;;5044711;28;20021;-61
2022/11/05 09:50:53;;;;;;;9.70;6.05;;;10.40;85.10;;;;;;5052611;28;20051;-61
2022/11/05 09:53:20;;;;;;;10.10;6.90;;;10.40;85.20;;;;;;5052004;28;20029;-60
2022/11/05 09:55:53;;;;;;;9.77;6.57;;;10.30;85.10;;;;;;5060679;28;20082;-62
2022/11/05 09:58:33;;;;;;;11.45;6.63;;;10.30;85.30;;;;;;5046895;28;20480;-61
2022/11/05 10:01:01;;;;;;;10.50;6.43;;;10.30;85.60;;;;;;5056929;28;20028;-62
2022/11/05 10:03:29;;;;;;;10.07;6.45;;;10.20;85.80;;;;;;5057121;28;20017;-61
2022/11/05 10:06:08;;;;;;;12.20;7.72;;;10.20;85.90;;;;;;5056842;28;20040;-61
2022/11/05 10:08:40;;;;;;;11.13;7.50;;;10.30;86.00;;;;;;5053508;28;20052;-61
2022/11/05 10:11:20;;;;;;;12.30;7.97;;;10.20;86.60;;;;;;5041292;28;20037;-62
2022/11/05 10:13:51;;;;;;;13.73;9.07;;;10.30;85.90;;;;;;5063553;28;20048;-61
2022/11/05 10:16:35;;;;;;;11.70;7.53;;;10.20;85.90;;;;;;5038644;28;20018;-62
2022/11/05 10:19:23;;;;;;;11.95;7.63;;;10.20;86.00;;;;;;5045416;28;20348;-61
2022/11/05 10:21:50;;;;;;;10.57;7.05;;;10.20;86.10;;;;;;5052592;28;20068;-62
2022/11/05 10:24:19;;;;;;;10.48;6.57;;;10.20;86.40;;;;;;5050684;28;20075;-59
2022/11/05 10:26:51;;;;;;;14.73;9.57;;;10.20;86.70;;;;;;5038541;28;20029;-61
2022/11/05 10:29:29;;;;;;;11.23;7.88;;;10.30;86.50;;;;;;5037147;28;20469;-61
2022/11/05 10:31:57;;;;;;;11.25;7.10;;;10.30;86.40;;;;;;5051396;28;20489;-62
2022/11/05 10:34:30;;;;;;;11.02;7.22;;;10.30;86.30;;;;;;5053716;28;20049;-61
2022/11/05 10:36:56;;;;;;;11.07;7.90;;;10.20;86.30;;;;;;5050974;28;20045;-62
2022/11/05 10:39:23;;;;;;;11.02;7.65;;;10.30;86.40;;;;;;5046995;28;20092;-61
2022/11/05 10:42:07;;;;;;;9.80;7.05;;;10.30;86.60;;;;;;5048586;28;20456;-61
2022/11/05 10:44:47;;;;;;;12.15;7.93;;;10.30;86.70;;;;;;5063481;28;20057;-62
2022/11/05 10:47:27;;;;;;;11.27;7.57;;;10.40;86.40;;;;;;5047466;28;20064;-61
2022/11/05 10:49:53;;;;;;;9.47;6.70;;;10.40;86.40;;;;;;5050126;28;20032;-62
2022/11/05 10:52:30;;;;;;;14.35;9.23;;;10.40;86.40;;;;;;5055287;28;20029;-61
2022/11/05 10:54:59;;;;;;;11.70;8.20;;;10.50;86.30;;;;;;5058805;28;20374;-61
2022/11/05 10:57:32;;;;;;;14.18;8.82;;;10.50;86.00;;;;;;5052997;28;20028;-61
2022/11/05 11:00:15;;;;;;;15.00;9.82;;;10.50;85.90;;;;;;5056284;28;20021;-61
2022/11/05 11:02:44;;;;;;;11.05;7.60;;;10.50;85.80;;;;;;5047207;28;20029;-61
2022/11/05 11:05:17;;;;;;;12.30;8.48;;;10.50;86.00;;;;;;5054924;28;20575;-60
2022/11/05 11:07:43;;;;;;;12.38;8.70;;;10.50;86.00;;;;;;5061502;28;20451;-61
2022/11/05 11:10:20;;;;;;;13.38;9.18;;;10.50;86.00;;;;;;5055103;28;20052;-61
2022/11/05 11:12:48;;;;;;;12.93;9.02;;;10.60;86.00;;;;;;5056404;28;20129;-62
2022/11/05 11:15:17;;;;;;;11.68;8.02;;;10.60;86.10;;;;;;5073212;28;20424;-62
2022/11/05 11:17:42;;;;;;;9.65;6.30;;;10.70;86.30;;;;;;5053500;28;20025;-61
2022/11/05 11:20:28;;;;;;;9.77;6.70;;;10.70;86.20;;;;;;5054134;28;20035;-61
2022/11/05 11:23:12;;;;;;;8.85;6.13;;;10.80;86.00;;;;;;5063343;28;20483;-61
2022/11/05 11:25:51;;;;;;;11.27;6.95;;;10.80;85.90;;;;;;5055429;28;20048;-61
2022/11/05 11:28:25;;;;;;;10.10;6.90;;;10.80;85.60;;;;;;5054023;28;20025;-60
2022/11/05 11:31:01;;;;;;;13.93;8.80;;;10.90;85.80;;;;;;5042291;28;20025;-62
2022/11/05 11:33:28;;;;;;;9.23;7.03;;;10.90;85.70;;;;;;5051730;28;20507;-61
2022/11/05 11:35:54;;;;;;;11.70;7.82;;;10.90;85.70;;;;;;5051447;28;20429;-61
2022/11/05 11:38:23;;;;;;;10.73;7.38;;;11.00;85.60;;;;;;5060130;28;20068;-61
2022/11/05 11:40:49;;;;;;;9.70;6.47;;;11.00;85.40;;;;;;5054021;28;20040;-61
2022/11/05 11:43:34;;;;;;;9.77;7.18;;;11.10;85.30;;;;;;5056247;28;20025;-62
2022/11/05 11:46:03;;;;;;;9.35;7.05;;;11.10;84.90;;;;;;5054337;28;20047;-61
2022/11/05 11:48:30;;;;;;;9.55;6.53;;;11.10;84.90;;;;;;5051278;28;20032;-61
2022/11/05 11:50:57;;;;;;;9.13;6.75;;;11.10;84.70;;;;;;5062100;28;20020;-59
2022/11/05 11:53:23;;;;;;;10.48;6.72;;;11.10;84.70;;;;;;5053129;28;20029;-60
2022/11/05 11:55:59;;;;;;;9.13;6.20;;;11.10;85.40;;;;;;5049339;28;20022;-61
2022/11/05 11:58:46;;;;;;;8.93;6.18;;;11.10;84.40;;;;;;5055384;28;20021;-61
2022/11/05 12:01:27;;;;;;;8.88;6.13;;;11.10;84.30;;;;;;5067015;28;20096;-61
2022/11/05 12:04:05;;;;;;;10.93;6.95;;;11.10;84.30;;;;;;5061424;28;20032;-59
2022/11/05 12:06:55;;;;;;;12.45;7.47;;;11.10;84.20;;;;;;5037723;28;20029;-61
2022/11/05 12:09:36;;;;;;;12.77;6.70;;;11.20;84.20;;;;;;5037077;28;20024;-61
2022/11/05 12:12:13;;;;;;;10.63;7.07;;;11.10;83.90;;;;;;5061192;28;20048;-61
2022/11/05 12:15:20;;;;;;;11.45;7.03;;;11.10;83.90;;;;;;5061065;28;20769;-61
2022/11/05 12:17:48;;;;;;;10.90;7.13;;;11.10;84.00;;;;;;5050818;28;20071;-61
2022/11/05 12:20:41;;;;;;;11.35;7.75;;;11.10;84.10;;;;;;5049790;28;20357;-61
2022/11/05 12:23:28;;;;;;;13.00;7.85;;;11.00;84.10;;;;;;5047072;28;20030;-61
2022/11/05 12:26:00;;;;;;;11.50;6.75;;;11.00;84.40;;;;;;5048621;28;20595;-61
2022/11/05 12:28:28;;;;;;;11.30;7.45;;;11.00;84.40;;;;;;5051557;28;20033;-59
2022/11/05 12:31:33;;;;;;;9.50;6.32;;;11.00;84.40;;;;;;5034438;28;20037;-62
2022/11/05 12:34:36;;;;;;;11.05;7.25;;;11.00;84.30;;;;;;5041067;28;20017;-61
2022/11/05 12:37:23;;;;;;;8.63;6.20;;;10.90;84.20;;;;;;5034498;28;20017;-62
2022/11/05 12:40:30;;;;;;;8.95;6.32;;;10.90;84.10;;;;;;5047630;28;20523;-61
2022/11/05 12:43:24;;;;;;;8.93;5.93;;;11.00;84.10;;;;;;5031460;28;20037;-62
2022/11/05 12:45:59;;;;;;;10.90;6.82;;;11.00;84.40;;;;;;5051059;28;20039;-61
2022/11/05 12:48:40;;;;;;;9.55;6.63;;;10.90;84.10;;;;;;5051349;28;20033;-61
2022/11/05 12:51:27;;;;;;;8.27;5.45;;;11.00;84.00;;;;;;5051648;28;20108;-62
2022/11/05 12:53:53;;;;;;;8.90;5.93;;;11.00;84.10;;;;;;5052755;28;20017;-62
2022/11/05 12:56:39;;;;;;;11.35;7.20;;;11.00;84.10;;;;;;5052525;28;20116;-62
2022/11/05 12:59:40;;;;;;;9.43;6.90;;;11.00;84.00;;;;;;5047618;28;20400;-61
2022/11/05 13:02:27;;;;;;;10.45;6.75;;;11.00;84.00;;;;;;5043365;28;20057;-60
2022/11/05 13:04:58;;;;;;;11.43;7.28;;;11.00;84.00;;;;;;5033324;28;20033;-61
2022/11/05 13:07:28;;;;;;;11.73;7.57;;;11.00;83.70;;;;;;5046499;28;20017;-61
2022/11/05 13:10:20;;;;;;;9.85;6.70;;;11.00;83.60;;;;;;5044303;28;20044;-61
2022/11/05 13:12:51;;;;;;;8.50;6.00;;;11.00;83.50;;;;;;5034757;28;20475;-61
2022/11/05 13:15:20;;;;;;;7.90;5.45;;;11.00;83.60;;;;;;5049945;28;20380;-59
2022/11/05 13:17:54;;;;;;;10.35;6.70;;;11.00;83.50;;;;;;5059128;28;20075;-61
2022/11/05 13:20:32;;;;;;;10.43;6.07;;;11.00;83.60;;;;;;5056195;28;20039;-61
2022/11/05 13:23:25;;;;;;;8.73;5.22;;;11.00;83.50;;;;;;5061052;28;20051;-62
2022/11/05 13:26:21;;;;;;;10.40;6.53;;;11.00;83.30;;;;;;5056229;28;20047;-61
2022/11/05 13:29:00;;;;;;;8.15;5.68;;;11.00;83.20;;;;;;5057542;28;20091;-61
2022/11/05 13:31:32;;;;;;;8.95;5.82;;;11.00;83.30;;;;;;5050722;28;20033;-61
2022/11/05 13:34:03;;;;;;;9.60;6.20;;;11.00;83.30;;;;;;5042609;28;20032;-62
2022/11/05 13:39:45;;;;;;;8.85;6.43;;;11.00;83.20;;;;;;5056059;28;20040;-60
2022/11/05 13:42:35;;;;;;;9.48;6.55;;;11.00;82.80;;;;;;5049543;28;20032;-62
2022/11/05 13:45:19;;;;;;;8.82;5.50;;;11.00;82.80;;;;;;5053154;28;20063;-62
2022/11/05 13:48:23;;;;;;;10.30;6.05;;;11.00;82.90;;;;;;5058108;28;20399;-61
2022/11/05 13:51:09;;;;;;;9.07;5.70;;;11.00;83.00;;;;;;5027603;28;20091;-61